Time;durP1;ratioP1;P1;durP2;ratioP2;P2;SDS_P1;SDS_P2;PMS_P1;PMS_P2;Temp;Humidity;BMP_temperature;BMP_pressure;BME280_temperature;BME280_humidity;BME280_pressure;Samples;Min_cycle;Max_cycle;Signal;HPM_P1;HPM_P2
2023/10/28 00:02:05;;;;;;;18.08;3.65;;;;;;;;;;5031562;28;20040;-44
2023/10/28 00:04:32;;;;;;;27.15;3.95;;;;;;;;;;5029896;28;20045;-44
2023/10/28 00:06:59;;;;;;;21.92;3.40;;;;;;;;;;5031533;28;20037;-45
2023/10/28 00:09:27;;;;;;;25.42;3.58;;;;;;;;;;5030661;28;20033;-46
2023/10/28 00:11:54;;;;;;;38.38;4.20;;;;;;;;;;5030934;28;20040;-44
2023/10/28 00:14:21;;;;;;;37.90;3.95;;;;;;;;;;5030484;28;20404;-44
2023/10/28 00:16:49;;;;;;;23.90;4.43;;;;;;;;;;5031273;28;20065;-46
2023/10/28 00:19:16;;;;;;;23.33;4.05;;;;;;;;;;5030405;28;20061;-44
2023/10/28 00:21:43;;;;;;;32.28;4.20;;;;;;;;;;5031041;28;20045;-43
2023/10/28 00:24:10;;;;;;;33.42;4.85;;;;;;;;;;5030712;28;20033;-44
2023/10/28 00:26:38;;;;;;;22.17;4.03;;;;;;;;;;5024335;28;20134;-43
2023/10/28 00:29:05;;;;;;;32.08;4.32;;;;;;;;;;5031013;28;20060;-44
2023/10/28 00:31:32;;;;;;;30.83;4.55;;;;;;;;;;5031243;28;20029;-45
2023/10/28 00:33:59;;;;;;;53.08;5.40;;;;;;;;;;5031074;28;20034;-44
2023/10/28 00:36:26;;;;;;;29.30;3.92;;;;;;;;;;5026056;28;20431;-42
2023/10/28 00:38:55;;;;;;;33.97;4.82;;;;;;;;;;5030653;28;20037;-43
2023/10/28 00:41:22;;;;;;;28.80;4.25;;;;;;;;;;5030589;28;20042;-44
2023/10/28 00:43:49;;;;;;;34.75;4.85;;;;;;;;;;5031158;28;20021;-45
2023/10/28 00:46:16;;;;;;;35.08;4.65;;;;;;;;;;5030887;28;20041;-42
2023/10/28 00:48:44;;;;;;;37.65;5.47;;;;;;;;;;5030924;28;20388;-42
2023/10/28 00:51:11;;;;;;;35.33;7.25;;;;;;;;;;5030910;28;20029;-45
2023/10/28 00:53:38;;;;;;;47.97;9.98;;;;;;;;;;5031138;28;20037;-44
2023/10/28 00:56:05;;;;;;;50.40;8.20;;;;;;;;;;5030695;28;20028;-43
2023/10/28 00:58:34;;;;;;;43.25;9.68;;;;;;;;;;5030910;28;20479;-42
2023/10/28 01:01:01;;;;;;;47.13;10.85;;;;;;;;;;5030719;28;20025;-42
2023/10/28 01:03:30;;;;;;;54.35;12.85;;;;;;;;;;5030864;28;20655;-39
2023/10/28 01:05:57;;;;;;;63.42;12.35;;;;;;;;;;5030979;28;20108;-44
2023/10/28 01:08:24;;;;;;;62.95;13.13;;;;;;;;;;5030700;28;20029;-44
2023/10/28 01:10:51;;;;;;;85.63;16.45;;;;;;;;;;5030812;28;20017;-45
2023/10/28 01:13:19;;;;;;;99.55;19.05;;;;;;;;;;5030938;28;20060;-43
2023/10/28 01:15:46;;;;;;;92.18;18.75;;;;;;;;;;5014006;28;20029;-44
2023/10/28 01:18:13;;;;;;;82.95;19.23;;;;;;;;;;5034651;28;20167;-42
2023/10/28 01:20:40;;;;;;;77.82;17.98;;;;;;;;;;5033110;28;20404;-44
2023/10/28 01:23:08;;;;;;;91.93;18.33;;;;;;;;;;5020663;28;20403;-42
2023/10/28 01:25:35;;;;;;;78.00;17.88;;;;;;;;;;5033812;28;20056;-40
2023/10/28 01:28:02;;;;;;;87.43;18.60;;;;;;;;;;5033686;28;20095;-42
2023/10/28 01:30:29;;;;;;;63.30;15.93;;;;;;;;;;5027459;28;20033;-46
2023/10/28 01:32:56;;;;;;;66.88;15.55;;;;;;;;;;5012435;28;20034;-45
2023/10/28 01:35:24;;;;;;;62.72;15.07;;;;;;;;;;5026053;28;20068;-45
2023/10/28 01:37:51;;;;;;;58.22;14.65;;;;;;;;;;5025009;28;20044;-44
2023/10/28 01:40:19;;;;;;;65.38;14.65;;;;;;;;;;5026629;28;20120;-44
2023/10/28 01:42:46;;;;;;;51.35;13.13;;;;;;;;;;5022548;28;20037;-43
2023/10/28 01:45:13;;;;;;;54.17;14.55;;;;;;;;;;5028300;28;20579;-44
2023/10/28 01:47:41;;;;;;;55.80;12.60;;;;;;;;;;5027677;28;20040;-45
2023/10/28 01:50:11;;;;;;;47.85;12.30;;;;;;;;;;5027543;28;20022;-43
2023/10/28 01:52:39;;;;;;;66.78;13.43;;;;;;;;;;5029132;28;20096;-43
2023/10/28 01:55:07;;;;;;;55.55;12.75;;;;;;;;;;5023480;28;20092;-44
2023/10/28 01:57:34;;;;;;;72.53;13.60;;;;;;;;;;5032748;28;20037;-43
2023/10/28 02:00:06;;;;;;;62.60;12.25;;;;;;;;;;5033570;28;20041;-44
2023/10/28 02:02:34;;;;;;;51.15;13.40;;;;;;;;;;5040308;28;20029;-46
2023/10/28 02:05:01;;;;;;;56.20;13.35;;;;;;;;;;5031159;28;20117;-46
2023/10/28 02:07:28;;;;;;;53.00;12.25;;;;;;;;;;5026733;28;20475;-45
2023/10/28 02:09:55;;;;;;;41.70;12.00;;;;;;;;;;5033439;28;20056;-45
2023/10/28 02:12:22;;;;;;;47.28;12.68;;;;;;;;;;5033759;28;20025;-41
2023/10/28 02:14:52;;;;;;;51.53;12.57;;;;;;;;;;5033375;28;20021;-42
2023/10/28 02:17:19;;;;;;;41.40;11.25;;;;;;;;;;5022874;28;20148;-46
2023/10/28 02:19:47;;;;;;;50.05;10.52;;;;;;;;;;5028831;28;20141;-43
2023/10/28 02:22:14;;;;;;;44.20;10.90;;;;;;;;;;5023210;28;20036;-44
2023/10/28 02:24:41;;;;;;;41.63;10.95;;;;;;;;;;5026480;28;20109;-45
2023/10/28 02:27:08;;;;;;;46.83;10.65;;;;;;;;;;5021819;28;20048;-43
2023/10/28 02:29:37;;;;;;;42.47;9.93;;;;;;;;;;5022367;28;20029;-42
2023/10/28 02:32:05;;;;;;;42.25;10.52;;;;;;;;;;5026819;28;20076;-43
2023/10/28 02:34:32;;;;;;;43.03;10.43;;;;;;;;;;5026326;28;20029;-44
2023/10/28 02:36:59;;;;;;;52.58;9.80;;;;;;;;;;5020364;28;20109;-46
2023/10/28 02:39:26;;;;;;;50.35;9.82;;;;;;;;;;5032633;28;20735;-44
2023/10/28 02:41:56;;;;;;;57.17;9.85;;;;;;;;;;5020737;28;20053;-44
2023/10/28 02:44:24;;;;;;;43.80;9.32;;;;;;;;;;5032527;28;20040;-45
2023/10/28 02:46:51;;;;;;;50.60;10.30;;;;;;;;;;5027755;28;20068;-45
2023/10/28 02:49:18;;;;;;;46.63;9.07;;;;;;;;;;5027428;28;20096;-45
2023/10/28 02:51:45;;;;;;;47.40;9.27;;;;;;;;;;5023345;28;20492;-44
2023/10/28 02:54:14;;;;;;;47.50;8.90;;;;;;;;;;5029770;28;20079;-45
2023/10/28 02:56:41;;;;;;;36.83;9.00;;;;;;;;;;5021975;28;20109;-44
2023/10/28 02:59:09;;;;;;;55.55;9.73;;;;;;;;;;5014672;28;20530;-45
2023/10/28 03:01:38;;;;;;;49.97;8.73;;;;;;;;;;5027375;28;20041;-45
2023/10/28 03:04:05;;;;;;;42.75;8.27;;;;;;;;;;5026791;28;20034;-45
2023/10/28 03:06:32;;;;;;;31.20;8.15;;;;;;;;;;5028312;28;20048;-42
2023/10/28 03:09:00;;;;;;;38.63;6.85;;;;;;;;;;5032492;28;20049;-42
2023/10/28 03:11:27;;;;;;;43.38;8.55;;;;;;;;;;5031866;28;20044;-43
2023/10/28 03:13:54;;;;;;;58.50;8.82;;;;;;;;;;5014492;28;20040;-45
2023/10/28 03:16:21;;;;;;;46.40;9.43;;;;;;;;;;5032406;28;20510;-44
2023/10/28 03:18:48;;;;;;;34.72;8.10;;;;;;;;;;5032072;28;20041;-45
2023/10/28 03:21:15;;;;;;;44.35;8.93;;;;;;;;;;5031577;28;20053;-45
2023/10/28 03:23:42;;;;;;;42.05;7.90;;;;;;;;;;5032494;28;20604;-44
2023/10/28 03:26:09;;;;;;;43.67;8.52;;;;;;;;;;5032220;28;20040;-43
2023/10/28 03:28:36;;;;;;;40.75;8.45;;;;;;;;;;5026086;28;20026;-45
2023/10/28 03:31:10;;;;;;;41.15;8.35;;;;;;;;;;5026705;28;20029;-46
2023/10/28 03:33:38;;;;;;;34.28;7.30;;;;;;;;;;5017911;28;20113;-45
2023/10/28 03:36:05;;;;;;;41.35;8.88;;;;;;;;;;5026521;28;20118;-44
2023/10/28 03:38:36;;;;;;;37.75;7.68;;;;;;;;;;5024894;28;20057;-44
2023/10/28 03:41:09;;;;;;;39.35;8.25;;;;;;;;;;5018997;28;20037;-42
2023/10/28 03:43:36;;;;;;;37.47;6.95;;;;;;;;;;5023064;28;20087;-43
2023/10/28 03:46:04;;;;;;;38.38;8.48;;;;;;;;;;5031809;28;20048;-44
2023/10/28 03:48:31;;;;;;;48.78;7.72;;;;;;;;;;5031178;28;20029;-45
2023/10/28 03:51:03;;;;;;;41.72;7.40;;;;;;;;;;5028498;28;20033;-46
2023/10/28 03:53:30;;;;;;;36.60;7.50;;;;;;;;;;5031570;28;20140;-37
2023/10/28 03:55:57;;;;;;;30.20;6.93;;;;;;;;;;5031696;28;20495;-39
2023/10/28 03:58:24;;;;;;;37.67;8.43;;;;;;;;;;5027242;28;20198;-37
2023/10/28 04:00:53;;;;;;;32.35;7.43;;;;;;;;;;5007875;28;20095;-37
2023/10/28 04:03:23;;;;;;;34.75;6.88;;;;;;;;;;5016094;28;20038;-37
2023/10/28 04:05:56;;;;;;;30.20;7.05;;;;;;;;;;5013286;28;20034;-36
2023/10/28 04:08:23;;;;;;;34.85;7.15;;;;;;;;;;5024612;28;20085;-40
2023/10/28 04:10:50;;;;;;;33.67;7.13;;;;;;;;;;5041022;28;20075;-39
2023/10/28 04:13:18;;;;;;;27.85;6.97;;;;;;;;;;5042102;28;20025;-39
2023/10/28 04:15:48;;;;;;;36.15;6.95;;;;;;;;;;5040215;28;20479;-38
2023/10/28 04:18:16;;;;;;;31.13;7.20;;;;;;;;;;5039964;28;20040;-37
2023/10/28 04:20:43;;;;;;;30.90;7.18;;;;;;;;;;5035043;28;20057;-39
2023/10/28 04:23:10;;;;;;;42.25;7.70;;;;;;;;;;5038613;28;20033;-39
2023/10/28 04:25:37;;;;;;;30.33;7.20;;;;;;;;;;5024805;28;20392;-40
2023/10/28 04:28:04;;;;;;;33.60;7.22;;;;;;;;;;5016529;28;20055;-39
2023/10/28 04:30:31;;;;;;;25.17;6.10;;;;;;;;;;5037032;28;20382;-39
2023/10/28 04:32:58;;;;;;;28.77;6.80;;;;;;;;;;5041090;28;20029;-37
2023/10/28 04:35:25;;;;;;;29.33;6.78;;;;;;;;;;5035930;28;20041;-39
2023/10/28 04:37:53;;;;;;;30.95;6.70;;;;;;;;;;5039296;28;20033;-38
2023/10/28 04:40:20;;;;;;;34.90;7.22;;;;;;;;;;5038105;28;20044;-38
2023/10/28 04:42:47;;;;;;;25.77;6.45;;;;;;;;;;5032845;28;20037;-38
2023/10/28 04:45:14;;;;;;;33.50;5.90;;;;;;;;;;5036465;28;20028;-39
2023/10/28 04:47:41;;;;;;;34.88;7.03;;;;;;;;;;5039574;28;20017;-37
2023/10/28 04:50:08;;;;;;;36.47;6.95;;;;;;;;;;5041462;28;20025;-39
2023/10/28 04:52:35;;;;;;;25.42;6.65;;;;;;;;;;5052628;28;20029;-38
2023/10/28 04:55:02;;;;;;;28.13;6.55;;;;;;;;;;5045593;28;20036;-37
2023/10/28 04:57:30;;;;;;;28.35;6.25;;;;;;;;;;5040426;28;20060;-39
2023/10/28 04:59:56;;;;;;;28.85;6.38;;;;;;;;;;5034699;28;20029;-38
2023/10/28 05:02:23;;;;;;;29.27;6.47;;;;;;;;;;5034696;28;20032;-39
2023/10/28 05:04:50;;;;;;;33.15;6.10;;;;;;;;;;5034653;28;20033;-39
2023/10/28 05:07:17;;;;;;;24.95;5.80;;;;;;;;;;5034739;28;20060;-39
2023/10/28 05:09:44;;;;;;;22.60;6.13;;;;;;;;;;5034257;28;20030;-39
2023/10/28 05:12:11;;;;;;;26.70;6.07;;;;;;;;;;5031403;28;20104;-39
2023/10/28 05:14:38;;;;;;;24.83;6.03;;;;;;;;;;5034556;28;20040;-38
2023/10/28 05:17:05;;;;;;;28.35;6.35;;;;;;;;;;5034290;28;20032;-38
2023/10/28 05:19:32;;;;;;;31.98;6.63;;;;;;;;;;5034180;28;20041;-37
2023/10/28 05:22:02;;;;;;;24.45;6.50;;;;;;;;;;5033923;28;20042;-38
2023/10/28 05:24:29;;;;;;;33.30;6.80;;;;;;;;;;5034470;28;20087;-37
2023/10/28 05:26:57;;;;;;;26.25;6.72;;;;;;;;;;5034546;28;20071;-41
2023/10/28 05:29:24;;;;;;;25.70;5.97;;;;;;;;;;5034563;28;20041;-39
2023/10/28 05:31:56;;;;;;;36.53;6.72;;;;;;;;;;5034388;28;20037;-38
2023/10/28 05:34:23;;;;;;;37.30;6.88;;;;;;;;;;5034675;28;20063;-39
2023/10/28 05:36:51;;;;;;;31.73;6.65;;;;;;;;;;5034586;28;20029;-37
2023/10/28 05:39:18;;;;;;;36.92;6.38;;;;;;;;;;5034386;28;20037;-40
2023/10/28 05:41:45;;;;;;;29.02;6.35;;;;;;;;;;5034359;28;20053;-38
2023/10/28 05:44:12;;;;;;;29.38;7.07;;;;;;;;;;5034211;28;20478;-39
2023/10/28 05:46:39;;;;;;;36.08;7.22;;;;;;;;;;5034552;28;20107;-40
2023/10/28 05:49:06;;;;;;;28.75;6.20;;;;;;;;;;5033792;28;20500;-39
2023/10/28 05:51:36;;;;;;;24.42;6.18;;;;;;;;;;5033921;28;20040;-38
2023/10/28 05:54:06;;;;;;;22.83;6.07;;;;;;;;;;5034000;28;20033;-38
2023/10/28 05:56:33;;;;;;;26.17;6.13;;;;;;;;;;5033786;28;20517;-37
2023/10/28 05:59:01;;;;;;;30.63;6.35;;;;;;;;;;5034012;28;20124;-39
2023/10/28 06:01:28;;;;;;;23.63;5.80;;;;;;;;;;5031593;28;20497;-39
2023/10/28 06:03:55;;;;;;;22.70;5.63;;;;;;;;;;5033241;28;20476;-38
2023/10/28 06:06:22;;;;;;;29.60;6.45;;;;;;;;;;5033263;28;20475;-38
2023/10/28 06:08:49;;;;;;;27.38;5.85;;;;;;;;;;5033698;28;20534;-39
2023/10/28 06:11:16;;;;;;;21.02;5.80;;;;;;;;;;5033720;28;20049;-38
2023/10/28 06:13:43;;;;;;;23.85;5.88;;;;;;;;;;5030702;28;20614;-38
2023/10/28 06:16:10;;;;;;;24.67;5.70;;;;;;;;;;5052549;28;20025;-38
2023/10/28 06:18:40;;;;;;;20.85;5.72;;;;;;;;;;5033718;28;20033;-38
2023/10/28 06:21:07;;;;;;;27.55;5.57;;;;;;;;;;5033038;28;20053;-38
2023/10/28 06:23:34;;;;;;;18.35;5.47;;;;;;;;;;5033678;28;20025;-37
2023/10/28 06:26:02;;;;;;;21.52;5.30;;;;;;;;;;5034643;28;20041;-38
2023/10/28 06:28:29;;;;;;;20.48;5.15;;;;;;;;;;5047277;28;20037;-39
2023/10/28 06:30:56;;;;;;;17.27;5.60;;;;;;;;;;5033367;28;20025;-38
2023/10/28 06:33:24;;;;;;;22.48;5.43;;;;;;;;;;5033404;28;20365;-39
2023/10/28 06:35:51;;;;;;;20.77;5.88;;;;;;;;;;5033665;28;20499;-39
2023/10/28 06:38:18;;;;;;;17.58;4.53;;;;;;;;;;5032836;28;20033;-38
2023/10/28 06:40:47;;;;;;;18.75;4.80;;;;;;;;;;5033664;28;20035;-38
2023/10/28 06:43:15;;;;;;;17.55;5.30;;;;;;;;;;5033638;28;20262;-39
2023/10/28 06:45:42;;;;;;;19.65;5.18;;;;;;;;;;5053425;28;20059;-40
2023/10/28 06:48:10;;;;;;;20.25;5.40;;;;;;;;;;5027942;28;20048;-38
2023/10/28 06:50:37;;;;;;;16.95;5.15;;;;;;;;;;5033240;28;20501;-39
2023/10/28 06:53:04;;;;;;;15.82;5.53;;;;;;;;;;5033436;28;20625;-39
2023/10/28 06:55:32;;;;;;;18.63;5.18;;;;;;;;;;5033474;28;20444;-39
2023/10/28 06:57:59;;;;;;;16.27;4.72;;;;;;;;;;5033228;28;20033;-40
2023/10/28 07:00:29;;;;;;;16.98;5.07;;;;;;;;;;5041654;28;20029;-38
2023/10/28 07:02:56;;;;;;;18.75;4.90;;;;;;;;;;5035014;28;20025;-40
2023/10/28 07:05:27;;;;;;;20.27;5.68;;;;;;;;;;5033038;28;20483;-39
2023/10/28 07:07:57;;;;;;;17.20;5.22;;;;;;;;;;5032861;28;20072;-37
2023/10/28 07:10:24;;;;;;;15.57;4.00;;;;;;;;;;5032493;28;20431;-39
2023/10/28 07:12:51;;;;;;;14.55;4.38;;;;;;;;;;5032478;28;20029;-39
2023/10/28 07:15:18;;;;;;;14.60;4.07;;;;;;;;;;5032191;28;20670;-39
2023/10/28 07:17:45;;;;;;;14.85;4.68;;;;;;;;;;5032718;28;20025;-39
2023/10/28 07:20:12;;;;;;;14.95;4.72;;;;;;;;;;5032108;28;20055;-38
2023/10/28 07:22:41;;;;;;;15.48;5.03;;;;;;;;;;5032011;28;20056;-38
2023/10/28 07:25:09;;;;;;;17.20;4.20;;;;;;;;;;5032780;28;20076;-38
2023/10/28 07:27:36;;;;;;;12.98;4.28;;;;;;;;;;5032115;28;20369;-39
2023/10/28 07:30:03;;;;;;;13.38;3.60;;;;;;;;;;5032213;28;20440;-38
2023/10/28 07:32:31;;;;;;;13.18;4.20;;;;;;;;;;5014633;28;20064;-39
2023/10/28 07:34:58;;;;;;;16.80;4.20;;;;;;;;;;5024903;28;20083;-38
2023/10/28 07:37:25;;;;;;;12.55;4.13;;;;;;;;;;5032296;28;20466;-38
2023/10/28 07:39:52;;;;;;;15.85;3.80;;;;;;;;;;5031713;28;20049;-38
2023/10/28 07:42:22;;;;;;;12.73;3.78;;;;;;;;;;5032459;28;20029;-38
2023/10/28 07:44:49;;;;;;;14.45;4.20;;;;;;;;;;5032005;28;20048;-38
2023/10/28 07:47:16;;;;;;;12.63;3.85;;;;;;;;;;5031845;28;20037;-38
2023/10/28 07:49:43;;;;;;;12.15;4.22;;;;;;;;;;5031754;28;20029;-39
2023/10/28 07:52:10;;;;;;;10.35;3.78;;;;;;;;;;5031757;28;20028;-38
2023/10/28 07:54:37;;;;;;;12.85;4.05;;;;;;;;;;5032003;28;20044;-38
2023/10/28 07:57:04;;;;;;;13.25;3.90;;;;;;;;;;5031860;28;20044;-38
2023/10/28 07:59:31;;;;;;;13.15;3.92;;;;;;;;;;5031286;28;20048;-39
2023/10/28 08:02:00;;;;;;;10.50;3.53;;;;;;;;;;5031732;28;20029;-39
2023/10/28 08:04:27;;;;;;;12.10;3.90;;;;;;;;;;5032179;28;20512;-38
2023/10/28 08:06:54;;;;;;;12.57;3.83;;;;;;;;;;5032083;28;20384;-37
2023/10/28 08:09:22;;;;;;;12.90;3.65;;;;;;;;;;5030600;28;20036;-40
2023/10/28 08:11:50;;;;;;;13.73;3.90;;;;;;;;;;5031471;28;20040;-37
2023/10/28 08:14:17;;;;;;;10.00;3.50;;;;;;;;;;5031591;28;20416;-40
2023/10/28 08:16:45;;;;;;;9.27;3.45;;;;;;;;;;5031587;28;20039;-39
2023/10/28 08:19:12;;;;;;;12.32;3.50;;;;;;;;;;5030560;28;20053;-38
2023/10/28 08:21:39;;;;;;;8.50;3.30;;;;;;;;;;5031178;28;20392;-37
2023/10/28 08:24:08;;;;;;;10.27;3.42;;;;;;;;;;5031282;28;20083;-39
2023/10/28 08:26:35;;;;;;;12.25;3.35;;;;;;;;;;5031035;28;20030;-39
2023/10/28 08:29:02;;;;;;;16.92;3.92;;;;;;;;;;5031346;28;20025;-39
2023/10/28 08:31:29;;;;;;;9.65;3.20;;;;;;;;;;5031000;28;20547;-38
2023/10/28 08:33:56;;;;;;;8.98;3.70;;;;;;;;;;5038099;28;20047;-38
2023/10/28 08:36:25;;;;;;;10.20;3.53;;;;;;;;;;5035132;28;20030;-39
2023/10/28 08:38:52;;;;;;;11.85;3.50;;;;;;;;;;5030974;28;20057;-38
2023/10/28 08:41:24;;;;;;;9.90;3.47;;;;;;;;;;5031304;28;20444;-39
2023/10/28 08:43:51;;;;;;;;;;;;;;;;;;5031844;28;20044;-38
2023/10/28 08:46:18;;;;;;;7.38;2.80;;;;;;;;;;5031447;28;19909;-38
2023/10/28 08:48:45;;;;;;;7.85;3.10;;;;;;;;;;5030994;28;20120;-42
2023/10/28 08:51:14;;;;;;;10.57;3.00;;;;;;;;;;5031003;28;20060;-39
2023/10/28 08:53:44;;;;;;;9.80;3.15;;;;;;;;;;5031107;28;20392;-40
2023/10/28 08:56:23;;;;;;;9.20;2.95;;;;;;;;;;5013251;28;20403;-38
2023/10/28 08:58:51;;;;;;;9.00;2.88;;;;;;;;;;5030804;28;20057;-40
2023/10/28 09:01:24;;;;;;;8.30;3.00;;;;;;;;;;5031101;28;20113;-38
2023/10/28 09:03:55;;;;;;;6.78;2.60;;;;;;;;;;5030551;28;20056;-39
2023/10/28 09:06:22;;;;;;;6.32;2.58;;;;;;;;;;5031357;28;20034;-39
2023/10/28 09:08:50;;;;;;;8.15;2.80;;;;;;;;;;5030615;28;20033;-38
2023/10/28 09:11:17;;;;;;;8.38;2.58;;;;;;;;;;5030978;28;20039;-38
2023/10/28 09:13:47;;;;;;;7.80;3.10;;;;;;;;;;5030718;28;20475;-38
2023/10/28 09:16:14;;;;;;;8.40;2.90;;;;;;;;;;5030923;28;20037;-39
2023/10/28 09:18:42;;;;;;;7.20;2.65;;;;;;;;;;5030203;28;20446;-39
2023/10/28 09:21:10;;;;;;;7.70;3.00;;;;;;;;;;5030089;28;20057;-39
2023/10/28 09:23:38;;;;;;;7.22;2.80;;;;;;;;;;5030196;28;20410;-37
2023/10/28 09:26:05;;;;;;;17.48;4.07;;;;;;;;;;5030861;28;20060;-39
2023/10/28 09:28:35;;;;;;;32.15;4.85;;;;;;;;;;5030330;28;20026;-38
2023/10/28 09:31:05;;;;;;;30.38;4.80;;;;;;;;;;5030792;28;20060;-39
2023/10/28 09:33:32;;;;;;;29.38;4.63;;;;;;;;;;5030841;28;20056;-37
2023/10/28 09:36:00;;;;;;;40.17;5.93;;;;;;;;;;5014897;28;20041;-38
2023/10/28 09:38:27;;;;;;;39.83;5.72;;;;;;;;;;5054274;28;20035;-40
2023/10/28 09:40:55;;;;;;;27.35;4.68;;;;;;;;;;5034594;28;20059;-38
2023/10/28 09:43:23;;;;;;;37.92;5.80;;;;;;;;;;5034426;28;20453;-38
2023/10/28 09:45:53;;;;;;;35.00;5.78;;;;;;;;;;5034134;28;20498;-38
2023/10/28 09:48:20;;;;;;;26.80;4.60;;;;;;;;;;5034510;28;20388;-38
2023/10/28 09:50:52;;;;;;;28.80;5.15;;;;;;;;;;5034209;28;20040;-38
2023/10/28 09:53:26;;;;;;;34.15;5.80;;;;;;;;;;5016535;28;20438;-39
2023/10/28 09:55:55;;;;;;;30.23;5.57;;;;;;;;;;5033966;28;20033;-38
2023/10/28 09:58:28;;;;;;;28.02;5.15;;;;;;;;;;5014446;28;20038;-39
2023/10/28 10:00:59;;;;;;;26.48;5.18;;;;;;;;;;5032828;28;20034;-39
2023/10/28 10:03:28;;;;;;;35.53;5.78;;;;;;;;;;5034326;28;20026;-39
2023/10/28 10:05:55;;;;;;;37.08;5.75;;;;;;;;;;5033784;28;20036;-39
2023/10/28 10:08:23;;;;;;;26.73;5.60;;;;;;;;;;5033806;28;20407;-37
2023/10/28 10:10:51;;;;;;;21.73;4.85;;;;;;;;;;5033101;28;20467;-39
2023/10/28 10:13:19;;;;;;;23.83;4.82;;;;;;;;;;5034206;28;20567;-38
2023/10/28 10:15:56;;;;;;;23.88;5.18;;;;;;;;;;5033897;28;20044;-37
2023/10/28 10:18:33;;;;;;;32.95;5.32;;;;;;;;;;5032294;28;20049;-39
2023/10/28 10:21:12;;;;;;;20.60;5.00;;;;;;;;;;5033066;28;20404;-37
2023/10/28 10:23:42;;;;;;;21.88;4.70;;;;;;;;;;5033278;28;20022;-41
2023/10/28 10:26:20;;;;;;;25.77;4.63;;;;;;;;;;5033679;28;20383;-38
2023/10/28 10:28:47;;;;;;;26.98;5.32;;;;;;;;;;5023966;28;20048;-38
2023/10/28 10:31:14;;;;;;;28.52;4.53;;;;;;;;;;5033383;28;20025;-39
2023/10/28 10:33:41;;;;;;;22.60;4.25;;;;;;;;;;5033845;28;20034;-39
2023/10/28 10:36:17;;;;;;;18.65;4.65;;;;;;;;;;5033755;28;20097;-39
2023/10/28 10:38:45;;;;;;;19.42;4.00;;;;;;;;;;5026376;28;20136;-39
2023/10/28 10:41:23;;;;;;;19.80;3.67;;;;;;;;;;5042533;28;20036;-38
2023/10/28 10:43:50;;;;;;;18.73;3.83;;;;;;;;;;5033424;28;20068;-38
2023/10/28 10:46:17;;;;;;;22.98;4.20;;;;;;;;;;5033255;28;20033;-39
2023/10/28 10:48:47;;;;;;;22.90;4.25;;;;;;;;;;5032402;28;20400;-38
2023/10/28 10:51:15;;;;;;;16.15;3.55;;;;;;;;;;5027759;28;20037;-38
2023/10/28 10:53:43;;;;;;;19.20;3.70;;;;;;;;;;5033069;28;20391;-37
2023/10/28 10:56:20;;;;;;;13.75;3.10;;;;;;;;;;5033201;28;20045;-38
2023/10/28 10:58:47;;;;;;;16.02;3.72;;;;;;;;;;5032607;28;20049;-37
2023/10/28 11:01:15;;;;;;;13.40;3.45;;;;;;;;;;5032638;28;20025;-39
2023/10/28 11:03:42;;;;;;;13.80;3.33;;;;;;;;;;5032537;28;20195;-37
2023/10/28 11:06:12;;;;;;;13.93;2.88;;;;;;;;;;5033027;28;20033;-39
2023/10/28 11:08:40;;;;;;;12.60;3.10;;;;;;;;;;5032550;28;20084;-38
2023/10/28 11:11:07;;;;;;;11.30;2.55;;;;;;;;;;5032088;28;20056;-39
2023/10/28 11:13:34;;;;;;;10.27;2.72;;;;;;;;;;5014233;28;20388;-38
2023/10/28 11:16:01;;;;;;;9.10;2.55;;;;;;;;;;5032463;28;20135;-38
2023/10/28 11:18:28;;;;;;;8.38;2.72;;;;;;;;;;5032632;28;20029;-38
2023/10/28 11:20:55;;;;;;;11.95;2.40;;;;;;;;;;5031394;28;20462;-37
2023/10/28 11:23:22;;;;;;;12.45;3.10;;;;;;;;;;5032270;28;20029;-37
2023/10/28 11:25:49;;;;;;;10.25;2.38;;;;;;;;;;5032376;28;20118;-37
2023/10/28 11:28:17;;;;;;;13.63;2.58;;;;;;;;;;5032035;28;20061;-35
2023/10/28 11:30:54;;;;;;;9.10;2.05;;;;;;;;;;5032104;28;20456;-34
2023/10/28 11:33:21;;;;;;;8.18;2.47;;;;;;;;;;5018162;28;20029;-36
2023/10/28 11:35:52;;;;;;;13.20;2.22;;;;;;;;;;5030307;28;20032;-36
2023/10/28 11:38:19;;;;;;;7.05;2.28;;;;;;;;;;5029407;28;20065;-35
2023/10/28 11:40:47;;;;;;;10.48;2.45;;;;;;;;;;5031285;28;20032;-36
2023/10/28 11:43:18;;;;;;;14.40;2.20;;;;;;;;;;5031962;28;20021;-35
2023/10/28 11:45:45;;;;;;;8.60;1.88;;;;;;;;;;5031866;28;20068;-35
2023/10/28 11:48:12;;;;;;;12.57;1.95;;;;;;;;;;5032083;28;20033;-34
2023/10/28 11:50:40;;;;;;;15.00;2.03;;;;;;;;;;5031798;28;20404;-35
2023/10/28 11:53:07;;;;;;;16.48;2.10;;;;;;;;;;5031938;28;20083;-35
2023/10/28 11:55:34;;;;;;;15.45;2.00;;;;;;;;;;5031629;28;20381;-34
2023/10/28 11:58:01;;;;;;;17.33;2.60;;;;;;;;;;5031258;28;20021;-34
2023/10/28 12:00:28;;;;;;;19.02;2.45;;;;;;;;;;5030278;28;20160;-35
2023/10/28 12:02:55;;;;;;;20.08;2.53;;;;;;;;;;5030747;28;20060;-35
2023/10/28 12:05:22;;;;;;;13.52;2.15;;;;;;;;;;5030163;28;20029;-35
2023/10/28 12:07:49;;;;;;;15.90;2.40;;;;;;;;;;5028785;28;20029;-35
2023/10/28 12:10:16;;;;;;;15.35;1.80;;;;;;;;;;5030359;28;20044;-35
2023/10/28 12:12:43;;;;;;;5.72;1.40;;;;;;;;;;5033893;28;20029;-35
2023/10/28 12:15:10;;;;;;;12.73;1.40;;;;;;;;;;5030023;28;20073;-35
2023/10/28 12:17:37;;;;;;;6.72;1.15;;;;;;;;;;5013218;28;20048;-35
2023/10/28 12:20:07;;;;;;;5.40;1.20;;;;;;;;;;5030851;28;20084;-35
2023/10/28 12:22:37;;;;;;;8.43;1.15;;;;;;;;;;5031376;28;20061;-35
2023/10/28 12:25:05;;;;;;;8.90;1.35;;;;;;;;;;5031550;28;20037;-34
2023/10/28 12:27:32;;;;;;;9.60;1.13;;;;;;;;;;5031008;28;20037;-35
2023/10/28 12:30:00;;;;;;;8.18;1.52;;;;;;;;;;5031331;28;20090;-36
2023/10/28 12:32:27;;;;;;;11.30;1.35;;;;;;;;;;5031372;28;20034;-35
2023/10/28 12:34:54;;;;;;;10.07;1.70;;;;;;;;;;5031342;28;20033;-35
2023/10/28 12:37:21;;;;;;;14.00;1.70;;;;;;;;;;5030717;28;20041;-35
2023/10/28 12:39:48;;;;;;;6.40;1.20;;;;;;;;;;5031196;28;20084;-35
2023/10/28 12:42:15;;;;;;;17.02;1.50;;;;;;;;;;5031421;28;20025;-35
2023/10/28 12:44:42;;;;;;;14.43;1.63;;;;;;;;;;5027850;28;20046;-35
2023/10/28 12:47:09;;;;;;;8.02;1.13;;;;;;;;;;5031303;28;20514;-35
2023/10/28 12:49:36;;;;;;;6.75;1.35;;;;;;;;;;5031320;28;20387;-35
2023/10/28 12:52:03;;;;;;;5.18;1.08;;;;;;;;;;5031342;28;20041;-36
2023/10/28 12:54:32;;;;;;;8.75;1.52;;;;;;;;;;5030695;28;20044;-35
2023/10/28 12:57:01;;;;;;;14.07;1.25;;;;;;;;;;5031137;28;20393;-35
2023/10/28 12:59:28;;;;;;;8.77;0.88;;;;;;;;;;5030952;28;20038;-35
2023/10/28 13:01:55;;;;;;;4.13;0.95;;;;;;;;;;5030879;28;20029;-35
2023/10/28 13:04:22;;;;;;;9.48;0.80;;;;;;;;;;5031095;28;20052;-35
2023/10/28 13:06:50;;;;;;;5.53;0.95;;;;;;;;;;5031033;28;20116;-35
2023/10/28 13:09:17;;;;;;;7.18;1.33;;;;;;;;;;5031086;28;20422;-35
2023/10/28 13:11:44;;;;;;;7.97;1.13;;;;;;;;;;5032264;28;20028;-35
2023/10/28 13:14:13;;;;;;;11.77;1.20;;;;;;;;;;5034754;28;20087;-35
2023/10/28 13:16:39;;;;;;;4.68;0.90;;;;;;;;;;5034997;28;20044;-35
2023/10/28 13:19:06;;;;;;;9.25;1.10;;;;;;;;;;5031326;28;20041;-34
2023/10/28 13:21:33;;;;;;;7.55;0.90;;;;;;;;;;5034251;28;20049;-35
2023/10/28 13:24:00;;;;;;;7.60;1.15;;;;;;;;;;5034415;28;20068;-34
2023/10/28 13:26:28;;;;;;;3.20;0.95;;;;;;;;;;5034722;28;20044;-34
2023/10/28 13:28:54;;;;;;;9.95;1.02;;;;;;;;;;5034016;28;20030;-34
2023/10/28 13:31:23;;;;;;;11.15;1.80;;;;;;;;;;5031075;28;20129;-35
2023/10/28 13:33:50;;;;;;;12.32;1.95;;;;;;;;;;4997373;28;20563;-34
2023/10/28 13:36:17;;;;;;;17.65;2.13;;;;;;;;;;5033990;28;20025;-34
2023/10/28 13:38:44;;;;;;;27.88;2.90;;;;;;;;;;5034234;28;20087;-35
2023/10/28 13:41:11;;;;;;;16.50;2.15;;;;;;;;;;5034369;28;20029;-35
2023/10/28 13:43:39;;;;;;;20.08;2.58;;;;;;;;;;5033894;28;20026;-35
2023/10/28 13:46:07;;;;;;;26.35;2.22;;;;;;;;;;5033248;28;20045;-35
2023/10/28 13:48:34;;;;;;;27.58;2.55;;;;;;;;;;5033985;28;20021;-35
2023/10/28 13:51:01;;;;;;;18.58;2.22;;;;;;;;;;5033869;28;20447;-37
2023/10/28 13:53:28;;;;;;;18.90;1.90;;;;;;;;;;5033666;28;20033;-36
2023/10/28 13:56:01;;;;;;;16.90;1.85;;;;;;;;;;5032359;28;20041;-36
2023/10/28 13:58:29;;;;;;;17.13;1.50;;;;;;;;;;5029997;28;20040;-36
2023/10/28 14:01:03;;;;;;;11.45;1.60;;;;;;;;;;5033066;28;20095;-37
2023/10/28 14:03:31;;;;;;;8.43;1.10;;;;;;;;;;5033666;28;20052;-36
2023/10/28 14:05:58;;;;;;;11.20;1.00;;;;;;;;;;5030114;28;20112;-36
2023/10/28 14:08:25;;;;;;;8.30;1.33;;;;;;;;;;5033239;28;20038;-36
2023/10/28 14:10:54;;;;;;;11.70;1.27;;;;;;;;;;5013751;28;20292;-36
2023/10/28 14:13:22;;;;;;;12.57;1.30;;;;;;;;;;5032685;28;20037;-36
2023/10/28 14:15:50;;;;;;;13.82;1.60;;;;;;;;;;5033162;28;20491;-36
2023/10/28 14:18:18;;;;;;;18.52;1.48;;;;;;;;;;5033123;28;20045;-37
2023/10/28 14:20:45;;;;;;;17.38;1.50;;;;;;;;;;5028488;28;20495;-35
2023/10/28 14:23:12;;;;;;;30.80;2.25;;;;;;;;;;5032444;28;20032;-35
2023/10/28 14:25:40;;;;;;;27.08;2.75;;;;;;;;;;5033276;28;20152;-36
2023/10/28 14:28:07;;;;;;;32.78;2.30;;;;;;;;;;5033322;28;20111;-36
2023/10/28 14:30:34;;;;;;;33.75;2.20;;;;;;;;;;5033367;28;20160;-36
2023/10/28 14:33:01;;;;;;;30.15;2.47;;;;;;;;;;5033396;28;20053;-36
2023/10/28 14:35:28;;;;;;;26.77;2.45;;;;;;;;;;5033000;28;20399;-35